sensor_id;sensor_type;location;lat;lon;timestamp;pressure;altitude;pressure_sealevel;temperature;humidity
10464;BME280;5279;42.048;24.638;2023-03-03T00:00:45;97723.13;;;6.09;100.00
10464;BME280;5279;42.048;24.638;2023-03-03T00:03:15;97717.63;;;6.12;100.00
10464;BME280;5279;42.048;24.638;2023-03-03T00:05:42;97714.91;;;6.14;100.00
10464;BME280;5279;42.048;24.638;2023-03-03T00:08:11;97712.38;;;6.12;100.00
10464;BME280;5279;42.048;24.638;2023-03-03T00:10:38;97713.09;;;6.14;100.00
10464;BME280;5279;42.048;24.638;2023-03-03T00:13:12;97701.84;;;6.12;100.00
10464;BME280;5279;42.048;24.638;2023-03-03T00:15:40;97707.97;;;6.13;100.00
10464;BME280;5279;42.048;24.638;2023-03-03T00:18:17;97697.44;;;6.13;100.00
10464;BME280;5279;42.048;24.638;2023-03-03T00:20:49;97694.91;;;6.11;100.00
10464;BME280;5279;42.048;24.638;2023-03-03T00:23:29;97687.75;;;6.13;100.00
10464;BME280;5279;42.048;24.638;2023-03-03T00:25:57;97690.16;;;6.16;100.00
10464;BME280;5279;42.048;24.638;2023-03-03T00:28:27;97677.22;;;6.13;100.00
10464;BME280;5279;42.048;24.638;2023-03-03T00:30:56;97684.16;;;6.14;100.00
10464;BME280;5279;42.048;24.638;2023-03-03T00:33:29;97677.00;;;6.16;100.00
10464;BME280;5279;42.048;24.638;2023-03-03T00:36:09;97665.88;;;6.13;100.00
10464;BME280;5279;42.048;24.638;2023-03-03T00:38:41;97663.94;;;6.15;100.00
10464;BME280;5279;42.048;24.638;2023-03-03T00:41:15;97661.22;;;6.16;100.00
10464;BME280;5279;42.048;24.638;2023-03-03T00:43:46;97660.13;;;6.19;100.00
10464;BME280;5279;42.048;24.638;2023-03-03T00:46:15;97656.66;;;6.18;100.00
10464;BME280;5279;42.048;24.638;2023-03-03T00:48:43;97653.19;;;6.18;100.00
10464;BME280;5279;42.048;24.638;2023-03-03T00:51:24;97648.78;;;6.18;100.00
10464;BME280;5279;42.048;24.638;2023-03-03T00:53:53;97642.91;;;6.15;100.00
10464;BME280;5279;42.048;24.638;2023-03-03T00:56:21;97653.94;;;6.20;100.00
10464;BME280;5279;42.048;24.638;2023-03-03T00:58:48;97633.22;;;6.15;100.00
10464;BME280;5279;42.048;24.638;2023-03-03T01:01:16;97631.78;;;6.11;100.00
10464;BME280;5279;42.048;24.638;2023-03-03T01:03:43;97644.69;;;6.14;100.00
10464;BME280;5279;42.048;24.638;2023-03-03T01:06:11;97646.13;;;6.07;100.00
10464;BME280;5279;42.048;24.638;2023-03-03T01:08:38;97640.00;;;5.95;100.00
10464;BME280;5279;42.048;24.638;2023-03-03T01:11:09;97633.38;;;5.90;100.00
10464;BME280;5279;42.048;24.638;2023-03-03T01:13:39;97637.41;;;5.83;100.00
10464;BME280;5279;42.048;24.638;2023-03-03T01:16:07;97646.91;;;5.85;100.00
10464;BME280;5279;42.048;24.638;2023-03-03T01:18:34;97641.00;;;5.82;100.00
10464;BME280;5279;42.048;24.638;2023-03-03T01:21:02;97644.31;;;5.84;100.00
10464;BME280;5279;42.048;24.638;2023-03-03T01:23:29;97648.44;;;5.88;100.00
10464;BME280;5279;42.048;24.638;2023-03-03T01:25:56;97642.47;;;5.86;100.00
10464;BME280;5279;42.048;24.638;2023-03-03T01:28:25;97638.25;;;5.83;100.00
10464;BME280;5279;42.048;24.638;2023-03-03T01:30:52;97646.75;;;5.87;100.00
10464;BME280;5279;42.048;24.638;2023-03-03T01:33:19;97647.50;;;5.89;100.00
10464;BME280;5279;42.048;24.638;2023-03-03T01:35:46;97644.13;;;5.87;100.00
10464;BME280;5279;42.048;24.638;2023-03-03T01:38:14;97641.69;;;5.84;100.00
10464;BME280;5279;42.048;24.638;2023-03-03T01:40:41;97644.31;;;5.84;100.00
10464;BME280;5279;42.048;24.638;2023-03-03T01:43:09;97647.09;;;5.82;100.00
10464;BME280;5279;42.048;24.638;2023-03-03T01:48:50;97633.63;;;5.87;100.00
10464;BME280;5279;42.048;24.638;2023-03-03T01:51:23;97626.47;;;5.89;100.00
10464;BME280;5279;42.048;24.638;2023-03-03T01:53:53;97623.28;;;5.84;100.00
10464;BME280;5279;42.048;24.638;2023-03-03T01:56:22;97618.69;;;5.87;100.00
10464;BME280;5279;42.048;24.638;2023-03-03T01:58:51;97612.78;;;5.84;100.00
10464;BME280;5279;42.048;24.638;2023-03-03T02:01:24;97612.34;;;5.90;100.00
10464;BME280;5279;42.048;24.638;2023-03-03T02:03:52;97615.50;;;5.95;100.00
10464;BME280;5279;42.048;24.638;2023-03-03T02:06:21;97608.78;;;5.91;100.00
10464;BME280;5279;42.048;24.638;2023-03-03T02:08:53;97607.59;;;5.95;100.00
10464;BME280;5279;42.048;24.638;2023-03-03T02:11:21;97613.56;;;5.97;100.00
10464;BME280;5279;42.048;24.638;2023-03-03T02:13:48;97613.34;;;6.00;100.00
10464;BME280;5279;42.048;24.638;2023-03-03T02:16:15;97616.59;;;6.03;100.00
10464;BME280;5279;42.048;24.638;2023-03-03T02:18:46;97611.31;;;6.03;100.00
10464;BME280;5279;42.048;24.638;2023-03-03T02:21:15;97617.44;;;6.04;100.00
10464;BME280;5279;42.048;24.638;2023-03-03T02:23:47;97614.78;;;6.04;100.00
10464;BME280;5279;42.048;24.638;2023-03-03T02:26:20;97606.66;;;6.07;100.00
10464;BME280;5279;42.048;24.638;2023-03-03T02:28:49;97607.38;;;6.09;100.00
10464;BME280;5279;42.048;24.638;2023-03-03T02:31:19;97612.66;;;6.09;100.00
10464;BME280;5279;42.048;24.638;2023-03-03T02:33:48;97602.34;;;6.06;100.00
10464;BME280;5279;42.048;24.638;2023-03-03T02:36:17;97598.78;;;6.07;100.00
10464;BME280;5279;42.048;24.638;2023-03-03T02:38:49;97595.41;;;6.05;100.00
10464;BME280;5279;42.048;24.638;2023-03-03T02:41:27;97594.00;;;6.01;100.00
10464;BME280;5279;42.048;24.638;2023-03-03T02:43:58;97599.84;;;6.04;100.00
10464;BME280;5279;42.048;24.638;2023-03-03T02:46:25;97602.81;;;6.00;100.00
10464;BME280;5279;42.048;24.638;2023-03-03T02:48:53;97607.84;;;6.03;100.00
10464;BME280;5279;42.048;24.638;2023-03-03T02:51:19;97600.66;;;6.05;100.00
10464;BME280;5279;42.048;24.638;2023-03-03T02:53:46;97607.63;;;6.06;100.00
10464;BME280;5279;42.048;24.638;2023-03-03T02:56:13;97611.88;;;5.96;100.00
10464;BME280;5279;42.048;24.638;2023-03-03T02:58:41;97610.25;;;6.06;100.00
10464;BME280;5279;42.048;24.638;2023-03-03T03:01:08;97611.94;;;6.07;100.00
10464;BME280;5279;42.048;24.638;2023-03-03T03:03:35;97604.97;;;6.06;100.00
10464;BME280;5279;42.048;24.638;2023-03-03T03:06:03;97611.44;;;6.02;100.00
10464;BME280;5279;42.048;24.638;2023-03-03T03:08:30;97605.22;;;6.03;100.00
10464;BME280;5279;42.048;24.638;2023-03-03T03:10:56;97600.66;;;6.05;100.00
10464;BME280;5279;42.048;24.638;2023-03-03T03:13:24;97598.28;;;6.02;100.00
10464;BME280;5279;42.048;24.638;2023-03-03T03:15:52;97605.13;;;6.04;100.00
10464;BME280;5279;42.048;24.638;2023-03-03T03:18:19;97599.56;;;5.96;100.00
10464;BME280;5279;42.048;24.638;2023-03-03T03:20:47;97608.09;;;6.00;100.00
10464;BME280;5279;42.048;24.638;2023-03-03T03:23:14;97600.19;;;6.00;100.00
10464;BME280;5279;42.048;24.638;2023-03-03T03:25:41;97605.34;;;6.01;100.00
10464;BME280;5279;42.048;24.638;2023-03-03T03:28:10;97597.22;;;6.04;100.00
10464;BME280;5279;42.048;24.638;2023-03-03T03:30:37;97603.31;;;6.05;100.00
10464;BME280;5279;42.048;24.638;2023-03-03T03:33:06;97597.09;;;6.06;100.00
10464;BME280;5279;42.048;24.638;2023-03-03T03:35:35;97603.81;;;6.10;100.00
10464;BME280;5279;42.048;24.638;2023-03-03T03:38:02;97612.66;;;6.09;100.00
10464;BME280;5279;42.048;24.638;2023-03-03T03:40:29;97602.84;;;6.11;100.00
10464;BME280;5279;42.048;24.638;2023-03-03T03:42:56;97600.94;;;6.13;100.00
10464;BME280;5279;42.048;24.638;2023-03-03T03:45:23;97600.19;;;6.11;100.00
10464;BME280;5279;42.048;24.638;2023-03-03T03:47:50;97594.13;;;6.11;100.00
10464;BME280;5279;42.048;24.638;2023-03-03T03:50:18;97592.06;;;6.14;100.00
10464;BME280;5279;42.048;24.638;2023-03-03T03:52:45;97593.06;;;6.13;100.00
10464;BME280;5279;42.048;24.638;2023-03-03T03:55:12;97592.44;;;6.10;100.00
10464;BME280;5279;42.048;24.638;2023-03-03T03:57:39;97591.50;;;6.11;100.00
10464;BME280;5279;42.048;24.638;2023-03-03T04:00:08;97584.41;;;6.11;100.00
10464;BME280;5279;42.048;24.638;2023-03-03T04:02:35;97596.41;;;6.15;100.00
10464;BME280;5279;42.048;24.638;2023-03-03T04:05:02;97591.13;;;6.15;100.00
10464;BME280;5279;42.048;24.638;2023-03-03T04:07:31;97596.16;;;6.18;100.00
10464;BME280;5279;42.048;24.638;2023-03-03T04:09:57;97592.81;;;6.16;100.00
10464;BME280;5279;42.048;24.638;2023-03-03T04:12:24;97592.91;;;6.03;100.00
10464;BME280;5279;42.048;24.638;2023-03-03T04:14:51;97597.09;;;6.06;100.00
10464;BME280;5279;42.048;24.638;2023-03-03T04:17:19;97593.53;;;6.07;100.00
10464;BME280;5279;42.048;24.638;2023-03-03T04:19:46;97597.72;;;6.10;100.00
10464;BME280;5279;42.048;24.638;2023-03-03T04:22:13;97598.53;;;6.10;100.00
10464;BME280;5279;42.048;24.638;2023-03-03T04:24:42;97589.69;;;6.11;100.00
10464;BME280;5279;42.048;24.638;2023-03-03T04:27:09;97592.81;;;6.16;100.00
10464;BME280;5279;42.048;24.638;2023-03-03T04:29:36;97592.06;;;6.14;100.00
10464;BME280;5279;42.048;24.638;2023-03-03T04:32:03;97597.72;;;6.10;100.00
10464;BME280;5279;42.048;24.638;2023-03-03T04:34:30;97591.84;;;6.06;100.00
10464;BME280;5279;42.048;24.638;2023-03-03T04:36:56;97594.59;;;6.04;100.00
10464;BME280;5279;42.048;24.638;2023-03-03T04:39:23;97592.06;;;6.03;100.00
10464;BME280;5279;42.048;24.638;2023-03-03T04:42:02;97597.09;;;6.06;100.00
10464;BME280;5279;42.048;24.638;2023-03-03T04:44:28;97596.34;;;5.93;100.00
10464;BME280;5279;42.048;24.638;2023-03-03T04:46:55;97586.41;;;5.85;100.00
10464;BME280;5279;42.048;24.638;2023-03-03T04:49:22;97589.81;;;5.75;100.00
10464;BME280;5279;42.048;24.638;2023-03-03T04:51:49;97585.06;;;5.80;100.00
10464;BME280;5279;42.048;24.638;2023-03-03T04:54:16;97584.63;;;5.86;100.00
10464;BME280;5279;42.048;24.638;2023-03-03T04:56:43;97580.56;;;5.93;100.00
10464;BME280;5279;42.048;24.638;2023-03-03T04:59:12;97589.81;;;5.98;100.00
10464;BME280;5279;42.048;24.638;2023-03-03T05:01:39;97591.97;;;6.04;100.00
10464;BME280;5279;42.048;24.638;2023-03-03T05:04:06;97588.25;;;6.07;100.00
10464;BME280;5279;42.048;24.638;2023-03-03T05:06:33;97596.63;;;6.12;100.00
10464;BME280;5279;42.048;24.638;2023-03-03T05:09:00;97589.44;;;6.14;100.00
10464;BME280;5279;42.048;24.638;2023-03-03T05:11:28;97590.19;;;6.16;100.00
10464;BME280;5279;42.048;24.638;2023-03-03T05:13:54;97591.13;;;6.15;100.00
10464;BME280;5279;42.048;24.638;2023-03-03T05:16:23;97589.44;;;6.14;100.00
10464;BME280;5279;42.048;24.638;2023-03-03T05:18:50;97598.31;;;6.13;100.00
10464;BME280;5279;42.048;24.638;2023-03-03T05:21:16;97591.38;;;6.12;100.00
10464;BME280;5279;42.048;24.638;2023-03-03T05:23:43;97593.53;;;6.07;100.00
10464;BME280;5279;42.048;24.638;2023-03-03T05:26:10;97598.78;;;6.07;100.00
10464;BME280;5279;42.048;24.638;2023-03-03T05:28:37;97596.03;;;6.09;100.00
10464;BME280;5279;42.048;24.638;2023-03-03T05:31:04;97600.44;;;6.08;100.00
10464;BME280;5279;42.048;24.638;2023-03-03T05:33:32;97596.63;;;6.01;100.00
10464;BME280;5279;42.048;24.638;2023-03-03T05:35:59;97592.06;;;6.03;100.00
10464;BME280;5279;42.048;24.638;2023-03-03T05:38:26;97603.44;;;6.03;100.00
10464;BME280;5279;42.048;24.638;2023-03-03T05:40:53;97599.72;;;6.06;100.00
10464;BME280;5279;42.048;24.638;2023-03-03T05:43:20;97602.84;;;6.11;100.00
10464;BME280;5279;42.048;24.638;2023-03-03T05:45:47;97607.38;;;6.09;100.00
10464;BME280;5279;42.048;24.638;2023-03-03T05:48:19;97603.56;;;6.13;100.00
10464;BME280;5279;42.048;24.638;2023-03-03T05:50:47;97607.38;;;6.09;100.00
10464;BME280;5279;42.048;24.638;2023-03-03T05:53:14;97602.59;;;6.14;100.00
10464;BME280;5279;42.048;24.638;2023-03-03T05:55:41;97607.63;;;6.17;100.00
10464;BME280;5279;42.048;24.638;2023-03-03T05:58:08;97605.47;;;6.11;100.00
10464;BME280;5279;42.048;24.638;2023-03-03T06:00:36;97607.84;;;6.14;100.00
10464;BME280;5279;42.048;24.638;2023-03-03T06:03:03;97605.59;;;6.21;100.00
10464;BME280;5279;42.048;24.638;2023-03-03T06:05:30;97610.75;;;6.22;100.00
10464;BME280;5279;42.048;24.638;2023-03-03T06:07:59;97613.03;;;6.27;100.00
10464;BME280;5279;42.048;24.638;2023-03-03T06:10:26;97618.19;;;6.28;100.00
10464;BME280;5279;42.048;24.638;2023-03-03T06:12:53;97614.34;;;6.32;100.00
10464;BME280;5279;42.048;24.638;2023-03-03T06:15:20;97614.94;;;6.36;100.00
10464;BME280;5279;42.048;24.638;2023-03-03T06:17:47;97618.91;;;6.41;100.00
10464;BME280;5279;42.048;24.638;2023-03-03T06:20:14;97621.19;;;6.46;100.00
10464;BME280;5279;42.048;24.638;2023-03-03T06:22:41;97623.91;;;6.44;100.00
10464;BME280;5279;42.048;24.638;2023-03-03T06:25:10;97614.47;;;6.42;100.00
10464;BME280;5279;42.048;24.638;2023-03-03T06:27:36;97625.84;;;6.42;100.00
10464;BME280;5279;42.048;24.638;2023-03-03T06:30:04;97625.84;;;6.42;100.00
10464;BME280;5279;42.048;24.638;2023-03-03T06:32:31;97625.59;;;6.45;100.00
10464;BME280;5279;42.048;24.638;2023-03-03T06:34:58;97636.38;;;6.42;100.00
10464;BME280;5279;42.048;24.638;2023-03-03T06:37:25;97629.19;;;6.44;100.00
10464;BME280;5279;42.048;24.638;2023-03-03T06:39:56;97641.16;;;6.48;100.00
10464;BME280;5279;42.048;24.638;2023-03-03T06:42:24;97630.41;;;6.51;100.00
10464;BME280;5279;42.048;24.638;2023-03-03T06:44:51;97639.03;;;6.53;100.00
10464;BME280;5279;42.048;24.638;2023-03-03T06:47:18;97635.56;;;6.53;100.00
10464;BME280;5279;42.048;24.638;2023-03-03T06:49:45;97631.84;;;6.55;100.00
10464;BME280;5279;42.048;24.638;2023-03-03T06:52:13;97644.78;;;6.47;100.00
10464;BME280;5279;42.048;24.638;2023-03-03T06:54:40;97637.97;;;6.56;100.00
10464;BME280;5279;42.048;24.638;2023-03-03T06:57:15;97639.59;;;6.57;100.00
10464;BME280;5279;42.048;24.638;2023-03-03T06:59:44;97640.22;;;6.60;100.00
10464;BME280;5279;42.048;24.638;2023-03-03T07:02:15;97635.19;;;6.57;100.00
10464;BME280;5279;42.048;24.638;2023-03-03T07:04:43;97642.38;;;6.67;100.00
10464;BME280;5279;42.048;24.638;2023-03-03T07:07:17;97634.84;;;6.73;100.00
10464;BME280;5279;42.048;24.638;2023-03-03T07:09:46;97642.63;;;6.75;100.00
10464;BME280;5279;42.048;24.638;2023-03-03T07:12:15;97642.88;;;6.72;100.00
10464;BME280;5279;42.048;24.638;2023-03-03T07:14:46;97643.44;;;6.75;100.00
10464;BME280;5279;42.048;24.638;2023-03-03T07:17:17;97635.91;;;6.71;100.00
10464;BME280;5279;42.048;24.638;2023-03-03T07:19:46;97640.72;;;6.77;100.00
10464;BME280;5279;42.048;24.638;2023-03-03T07:22:15;97642.63;;;6.75;100.00
10464;BME280;5279;42.048;24.638;2023-03-03T07:24:43;97645.47;;;6.60;100.00
10464;BME280;5279;42.048;24.638;2023-03-03T07:27:15;97645.47;;;6.60;100.00
10464;BME280;5279;42.048;24.638;2023-03-03T07:29:46;97646.69;;;6.68;100.00
10464;BME280;5279;42.048;24.638;2023-03-03T07:32:23;97638.78;;;6.68;100.00
10464;BME280;5279;42.048;24.638;2023-03-03T07:34:51;97633.38;;;6.69;100.00
10464;BME280;5279;42.048;24.638;2023-03-03T07:37:28;97639.50;;;6.70;100.00
10464;BME280;5279;42.048;24.638;2023-03-03T07:39:57;97653.41;;;6.72;100.00
10464;BME280;5279;42.048;24.638;2023-03-03T07:42:26;97650.03;;;6.70;100.00
10464;BME280;5279;42.048;24.638;2023-03-03T07:44:57;97639.50;;;6.70;100.00
10464;BME280;5279;42.048;24.638;2023-03-03T07:47:25;97644.75;;;6.70;100.00
10464;BME280;5279;42.048;24.638;2023-03-03T07:49:53;97646.94;;;6.65;100.00
10464;BME280;5279;42.048;24.638;2023-03-03T07:52:28;97643.34;;;6.66;100.00
10464;BME280;5279;42.048;24.638;2023-03-03T07:54:57;97643.09;;;6.69;100.00
10464;BME280;5279;42.048;24.638;2023-03-03T07:57:25;97636.75;;;6.49;100.00
10464;BME280;5279;42.048;24.638;2023-03-03T07:59:59;97642.34;;;6.44;100.00
10464;BME280;5279;42.048;24.638;2023-03-03T08:02:46;97633.03;;;6.51;100.00
10464;BME280;5279;42.048;24.638;2023-03-03T08:05:27;97629.91;;;6.35;100.00
10464;BME280;5279;42.048;24.638;2023-03-03T08:08:01;97625.09;;;6.29;100.00
10464;BME280;5279;42.048;24.638;2023-03-03T08:10:42;97628.00;;;6.37;100.00
10464;BME280;5279;42.048;24.638;2023-03-03T08:13:16;97625.00;;;6.42;100.00
10464;BME280;5279;42.048;24.638;2023-03-03T08:15:47;97626.22;;;6.49;100.00
10464;BME280;5279;42.048;24.638;2023-03-03T08:18:23;97620.25;;;6.58;100.00
10464;BME280;5279;42.048;24.638;2023-03-03T08:20:55;97614.50;;;6.64;100.00
10464;BME280;5279;42.048;24.638;2023-03-03T08:23:23;97614.13;;;6.57;100.00
10464;BME280;5279;42.048;24.638;2023-03-03T08:25:50;97615.31;;;6.42;100.00
10464;BME280;5279;42.048;24.638;2023-03-03T08:28:19;97615.31;;;6.31;100.00
10464;BME280;5279;42.048;24.638;2023-03-03T08:30:48;97610.72;;;6.11;100.00
10464;BME280;5279;42.048;24.638;2023-03-03T08:33:15;97605.50;;;6.22;100.00
10464;BME280;5279;42.048;24.638;2023-03-03T08:35:42;97621.00;;;6.14;100.00
10464;BME280;5279;42.048;24.638;2023-03-03T08:38:10;97610.22;;;5.95;100.00
10464;BME280;5279;42.048;24.638;2023-03-03T08:40:37;97605.47;;;6.11;100.00
10464;BME280;5279;42.048;24.638;2023-03-03T08:43:04;97600.25;;;6.22;100.00
10464;BME280;5279;42.048;24.638;2023-03-03T08:45:32;97602.59;;;6.14;100.00
10464;BME280;5279;42.048;24.638;2023-03-03T08:48:00;97609.38;;;5.94;100.00
10464;BME280;5279;42.048;24.638;2023-03-03T08:50:28;97592.75;;;5.94;100.00
10464;BME280;5279;42.048;24.638;2023-03-03T08:52:55;97598.03;;;5.94;100.00
10464;BME280;5279;42.048;24.638;2023-03-03T08:55:24;97598.03;;;5.94;100.00
10464;BME280;5279;42.048;24.638;2023-03-03T08:57:52;97599.16;;;6.14;100.00
10464;BME280;5279;42.048;24.638;2023-03-03T09:00:19;97604.19;;;6.39;100.00
10464;BME280;5279;42.048;24.638;2023-03-03T09:02:47;97596.69;;;6.56;100.00
10464;BME280;5279;42.048;24.638;2023-03-03T09:05:16;97602.16;;;6.65;100.00
10464;BME280;5279;42.048;24.638;2023-03-03T09:07:44;97604.06;;;6.96;100.00
10464;BME280;5279;42.048;24.638;2023-03-03T09:10:14;97588.50;;;7.36;100.00
10464;BME280;5279;42.048;24.638;2023-03-03T09:12:46;97588.19;;;7.82;100.00
10464;BME280;5279;42.048;24.638;2023-03-03T09:15:20;97586.59;;;8.11;100.00
10464;BME280;5279;42.048;24.638;2023-03-03T09:17:48;97586.63;;;8.71;100.00
10464;BME280;5279;42.048;24.638;2023-03-03T09:20:28;97585.56;;;9.33;100.00
10464;BME280;5279;42.048;24.638;2023-03-03T09:22:57;97581.06;;;10.20;100.00
10464;BME280;5279;42.048;24.638;2023-03-03T09:25:30;97581.53;;;11.16;98.51
10464;BME280;5279;42.048;24.638;2023-03-03T09:27:57;97572.19;;;11.92;89.10
10464;BME280;5279;42.048;24.638;2023-03-03T09:30:36;97577.31;;;12.12;78.71
10464;BME280;5279;42.048;24.638;2023-03-03T09:33:24;97585.59;;;12.60;78.79
10464;BME280;5279;42.048;24.638;2023-03-03T09:35:59;97579.81;;;12.98;78.43
10464;BME280;5279;42.048;24.638;2023-03-03T09:38:28;97574.59;;;13.14;77.33
10464;BME280;5279;42.048;24.638;2023-03-03T09:41:26;97586.47;;;13.02;76.33
10464;BME280;5279;42.048;24.638;2023-03-03T09:44:18;97565.06;;;13.04;80.39
10464;BME280;5279;42.048;24.638;2023-03-03T09:46:58;97571.09;;;12.80;79.56
10464;BME280;5279;42.048;24.638;2023-03-03T09:49:31;97573.72;;;12.72;78.16
10464;BME280;5279;42.048;24.638;2023-03-03T09:52:11;97565.19;;;12.35;79.31
10464;BME280;5279;42.048;24.638;2023-03-03T09:54:51;97568.56;;;11.93;84.50
10464;BME280;5279;42.048;24.638;2023-03-03T09:57:24;97564.72;;;11.70;88.92
10464;BME280;5279;42.048;24.638;2023-03-03T10:00:05;97567.69;;;11.40;95.02
10464;BME280;5279;42.048;24.638;2023-03-03T10:02:45;97568.13;;;11.18;95.49
10464;BME280;5279;42.048;24.638;2023-03-03T10:05:22;97567.59;;;11.14;99.90
10464;BME280;5279;42.048;24.638;2023-03-03T10:08:11;97565.78;;;10.87;100.00
10464;BME280;5279;42.048;24.638;2023-03-03T10:10:55;97561.66;;;10.75;100.00
10464;BME280;5279;42.048;24.638;2023-03-03T10:13:43;97557.31;;;10.47;100.00
10464;BME280;5279;42.048;24.638;2023-03-03T10:19:17;97559.31;;;10.07;100.00
10464;BME280;5279;42.048;24.638;2023-03-03T10:21:50;97554.19;;;9.96;100.00
10464;BME280;5279;42.048;24.638;2023-03-03T10:24:26;97552.13;;;9.80;100.00
10464;BME280;5279;42.048;24.638;2023-03-03T10:27:04;97550.34;;;9.42;100.00
10464;BME280;5279;42.048;24.638;2023-03-03T10:29:43;97537.09;;;9.23;100.00
10464;BME280;5279;42.048;24.638;2023-03-03T10:32:45;97546.16;;;9.30;100.00
10464;BME280;5279;42.048;24.638;2023-03-03T10:38:37;97531.00;;;9.51;100.00
10464;BME280;5279;42.048;24.638;2023-03-03T10:41:20;97529.72;;;9.55;100.00
10464;BME280;5279;42.048;24.638;2023-03-03T10:46:53;97527.22;;;9.25;100.00
10464;BME280;5279;42.048;24.638;2023-03-03T10:49:42;97521.53;;;9.39;100.00
10464;BME280;5279;42.048;24.638;2023-03-03T10:52:21;97515.09;;;9.13;100.00
10464;BME280;5279;42.048;24.638;2023-03-03T10:55:07;97526.06;;;8.89;100.00
10464;BME280;5279;42.048;24.638;2023-03-03T10:57:44;97514.53;;;9.00;100.00
10464;BME280;5279;42.048;24.638;2023-03-03T11:00:18;97513.97;;;8.87;100.00
10464;BME280;5279;42.048;24.638;2023-03-03T11:05:39;97502.50;;;8.67;100.00
10464;BME280;5279;42.048;24.638;2023-03-03T11:08:12;97502.66;;;8.85;100.00
10464;BME280;5279;42.048;24.638;2023-03-03T11:10:57;97498.09;;;8.87;100.00
10464;BME280;5279;42.048;24.638;2023-03-03T11:13:34;97490.88;;;8.98;100.00
10464;BME280;5279;42.048;24.638;2023-03-03T11:16:14;97498.69;;;9.09;100.00
10464;BME280;5279;42.048;24.638;2023-03-03T11:19:03;97495.06;;;9.10;100.00
10464;BME280;5279;42.048;24.638;2023-03-03T11:21:34;97496.28;;;8.97;100.00
10464;BME280;5279;42.048;24.638;2023-03-03T11:24:16;97496.97;;;8.79;100.00
10464;BME280;5279;42.048;24.638;2023-03-03T11:27:09;97493.47;;;8.69;100.00
10464;BME280;5279;42.048;24.638;2023-03-03T11:32:49;97502.09;;;8.71;100.00
10464;BME280;5279;42.048;24.638;2023-03-03T11:35:31;97492.75;;;8.58;100.00
10464;BME280;5279;42.048;24.638;2023-03-03T11:41:12;97484.72;;;8.59;100.00
10464;BME280;5279;42.048;24.638;2023-03-03T11:43:45;97476.63;;;8.61;100.00
10464;BME280;5279;42.048;24.638;2023-03-03T11:46:15;97469.97;;;8.57;100.00
10464;BME280;5279;42.048;24.638;2023-03-03T11:48:51;97474.00;;;8.61;100.00
10464;BME280;5279;42.048;24.638;2023-03-03T11:51:26;97459.94;;;8.51;100.00
10464;BME280;5279;42.048;24.638;2023-03-03T11:53:59;97469.78;;;8.49;100.00
10464;BME280;5279;42.048;24.638;2023-03-03T11:56:38;97461.88;;;8.49;100.00
10464;BME280;5279;42.048;24.638;2023-03-03T11:59:19;97471.59;;;8.48;100.00
10464;BME280;5279;42.048;24.638;2023-03-03T12:01:53;97458.13;;;8.51;100.00
10464;BME280;5279;42.048;24.638;2023-03-03T12:04:26;97451.56;;;8.46;100.00
10464;BME280;5279;42.048;24.638;2023-03-03T12:07:23;97457.44;;;8.49;100.00
10464;BME280;5279;42.048;24.638;2023-03-03T12:10:02;97457.47;;;8.59;100.00
10464;BME280;5279;42.048;24.638;2023-03-03T12:12:38;97451.06;;;8.61;100.00
10464;BME280;5279;42.048;24.638;2023-03-03T12:15:21;97453.03;;;8.69;100.00
10464;BME280;5279;42.048;24.638;2023-03-03T12:21:01;97448.00;;;8.75;100.00
10464;BME280;5279;42.048;24.638;2023-03-03T12:23:48;97447.72;;;8.59;100.00
10464;BME280;5279;42.048;24.638;2023-03-03T12:26:23;97452.69;;;8.43;100.00
10464;BME280;5279;42.048;24.638;2023-03-03T12:28:54;97442.94;;;8.34;100.00
10464;BME280;5279;42.048;24.638;2023-03-03T12:31:31;97450.06;;;8.13;100.00
10464;BME280;5279;42.048;24.638;2023-03-03T12:34:07;97445.66;;;8.23;100.00
10464;BME280;5279;42.048;24.638;2023-03-03T12:37:14;97447.53;;;8.32;100.00
10464;BME280;5279;42.048;24.638;2023-03-03T12:39:51;97454.03;;;8.28;100.00
10464;BME280;5279;42.048;24.638;2023-03-03T12:42:37;97455.22;;;8.24;100.00
10464;BME280;5279;42.048;24.638;2023-03-03T12:45:33;97451.72;;;8.14;100.00
10464;BME280;5279;42.048;24.638;2023-03-03T12:48:07;97454.50;;;8.12;100.00
10464;BME280;5279;42.048;24.638;2023-03-03T12:50:43;97450.84;;;8.04;100.00
10464;BME280;5279;42.048;24.638;2023-03-03T12:53:26;97453.25;;;8.16;100.00
10464;BME280;5279;42.048;24.638;2023-03-03T12:55:59;97449.78;;;8.16;100.00
10464;BME280;5279;42.048;24.638;2023-03-03T12:58:38;97453.38;;;8.15;100.00
10464;BME280;5279;42.048;24.638;2023-03-03T13:01:15;97453.38;;;8.15;100.00
10464;BME280;5279;42.048;24.638;2023-03-03T13:03:55;97448.69;;;8.18;100.00
10464;BME280;5279;42.048;24.638;2023-03-03T13:06:27;97446.34;;;8.25;100.00
10464;BME280;5279;42.048;24.638;2023-03-03T13:09:11;97437.91;;;8.31;100.00
10464;BME280;5279;42.048;24.638;2023-03-03T13:11:54;97437.00;;;8.21;100.00
10464;BME280;5279;42.048;24.638;2023-03-03T13:14:30;97432.84;;;8.18;100.00
10464;BME280;5279;42.048;24.638;2023-03-03T13:17:10;97440.00;;;8.28;100.00
10464;BME280;5279;42.048;24.638;2023-03-03T13:19:44;97447.78;;;8.29;100.00
10464;BME280;5279;42.048;24.638;2023-03-03T13:22:15;97446.81;;;8.30;100.00
10464;BME280;5279;42.048;24.638;2023-03-03T13:24:55;97442.63;;;8.28;100.00
10464;BME280;5279;42.048;24.638;2023-03-03T13:27:27;97441.22;;;8.23;100.00
10464;BME280;5279;42.048;24.638;2023-03-03T13:30:14;97446.88;;;8.19;100.00
10464;BME280;5279;42.048;24.638;2023-03-03T13:32:46;97433.00;;;8.17;100.00
10464;BME280;5279;42.048;24.638;2023-03-03T13:35:24;97437.75;;;8.23;100.00
10464;BME280;5279;42.048;24.638;2023-03-03T13:37:56;97434.25;;;8.22;100.00
10464;BME280;5279;42.048;24.638;2023-03-03T13:40:26;97429.56;;;8.26;100.00
10464;BME280;5279;42.048;24.638;2023-03-03T13:42:58;97430.69;;;8.33;100.00
10464;BME280;5279;42.048;24.638;2023-03-03T13:45:30;97439.91;;;8.39;100.00
10464;BME280;5279;42.048;24.638;2023-03-03T13:48:10;97432.41;;;8.44;100.00